Time;durP1;ratioP1;P1;durP2;ratioP2;P2;SDS_P1;SDS_P2;PMS_P1;PMS_P2;Temp;Humidity;BMP_temperature;BMP_pressure;BME280_temperature;BME280_humidity;BME280_pressure;Samples;Min_cycle;Max_cycle;Signal;HPM_P1;HPM_P2
2022/01/06 00:00:00;;;;;;;7.05;1.35;;;3.30;99.90;;;;;;5081153;28;20067;-73
2022/01/06 00:02:26;;;;;;;7.85;1.23;;;3.30;99.90;;;;;;5080560;28;20070;-74
2022/01/06 00:04:52;;;;;;;10.90;1.60;;;3.20;99.90;;;;;;5062312;28;20056;-74
2022/01/06 00:07:17;;;;;;;6.90;1.50;;;3.20;99.90;;;;;;5080504;28;20017;-74
2022/01/06 00:09:43;;;;;;;7.28;2.00;;;3.20;99.90;;;;;;5079614;28;20078;-74
2022/01/06 00:12:13;;;;;;;4.68;1.27;;;3.20;99.90;;;;;;5079313;28;20028;-74
2022/01/06 00:25:13;;;;;;;4.43;1.38;;;3.00;99.90;;;;;;5080610;28;20066;-74
2022/01/06 00:27:38;;;;;;;3.88;1.55;;;3.00;99.90;;;;;;5080331;28;20377;-73
2022/01/06 00:30:05;;;;;;;10.23;1.88;;;3.00;99.90;;;;;;5079972;28;20090;-74
2022/01/06 00:32:30;;;;;;;4.40;1.77;;;2.90;99.90;;;;;;5080042;28;20064;-76
2022/01/06 00:34:56;;;;;;;7.63;1.55;;;2.90;99.90;;;;;;5080751;28;20024;-73
2022/01/06 00:37:21;;;;;;;8.27;1.30;;;2.90;99.90;;;;;;5063509;28;20026;-74
2022/01/06 00:39:47;;;;;;;5.32;1.88;;;2.80;99.90;;;;;;5062467;28;20043;-73
2022/01/06 00:42:13;;;;;;;2.25;1.25;;;2.80;99.90;;;;;;5081437;28;20547;-73
2022/01/06 00:44:38;;;;;;;3.20;1.15;;;2.80;99.90;;;;;;5062458;28;20075;-74
2022/01/06 00:47:04;;;;;;;15.20;2.55;;;2.70;99.90;;;;;;5063227;28;20017;-74
2022/01/06 00:49:30;;;;;;;11.00;1.13;;;2.70;99.90;;;;;;5081578;28;20029;-74
2022/01/06 00:51:55;;;;;;;5.68;1.02;;;2.70;99.90;;;;;;5081717;28;20016;-74
2022/01/06 00:54:21;;;;;;;4.15;1.50;;;2.70;99.90;;;;;;5080969;28;20156;-74
2022/01/06 00:56:47;;;;;;;5.90;1.08;;;2.70;99.90;;;;;;5080853;28;20079;-74
2022/01/06 00:59:12;;;;;;;9.18;1.67;;;2.70;99.90;;;;;;5081459;28;20052;-74
2022/01/06 01:01:38;;;;;;;9.57;1.42;;;2.60;99.90;;;;;;5063602;28;20036;-74
2022/01/06 01:04:04;;;;;;;6.97;1.23;;;2.70;99.90;;;;;;5064604;28;20036;-74
2022/01/06 01:06:29;;;;;;;5.78;1.33;;;2.60;99.90;;;;;;5062234;28;20036;-74
2022/01/06 01:08:55;;;;;;;4.88;1.10;;;2.60;99.90;;;;;;5063761;28;20016;-74
2022/01/06 01:11:20;;;;;;;12.10;1.55;;;2.60;99.90;;;;;;5081734;28;20111;-74
2022/01/06 01:13:56;;;;;;;11.35;1.60;;;2.60;99.90;;;;;;5081396;28;20454;-74
2022/01/06 01:16:31;;;;;;;6.43;0.80;;;2.60;99.90;;;;;;5082592;28;20024;-74
2022/01/06 01:18:58;;;;;;;4.97;1.13;;;2.70;99.90;;;;;;5081955;28;20169;-74
2022/01/06 01:21:28;;;;;;;5.25;1.13;;;2.70;99.90;;;;;;5082161;28;20144;-74
2022/01/06 01:23:58;;;;;;;8.35;1.17;;;2.70;99.90;;;;;;5063603;28;20127;-74
2022/01/06 01:26:27;;;;;;;4.07;1.10;;;2.70;99.90;;;;;;5081442;28;20028;-75
2022/01/06 01:28:53;;;;;;;11.80;1.75;;;2.70;99.90;;;;;;5081175;28;20070;-74
2022/01/06 01:33:49;;;;;;;5.68;1.73;;;2.70;99.90;;;;;;5080942;28;20028;-74
2022/01/06 01:36:15;;;;;;;5.88;1.40;;;2.70;99.90;;;;;;5063017;28;20032;-74
2022/01/06 01:38:41;;;;;;;6.90;1.60;;;2.70;99.90;;;;;;5080585;28;20032;-73
2022/01/06 01:41:08;;;;;;;9.23;1.83;;;2.60;99.90;;;;;;5081034;28;20519;-74
2022/01/06 01:43:34;;;;;;;6.07;1.80;;;2.60;99.90;;;;;;5063292;28;20484;-74
2022/01/06 01:46:09;;;;;;;8.00;1.88;;;2.60;99.90;;;;;;5081466;28;20078;-74
2022/01/06 01:48:37;;;;;;;11.45;1.67;;;2.60;99.90;;;;;;5081306;28;20043;-74
2022/01/06 01:51:03;;;;;;;6.55;1.42;;;2.60;99.90;;;;;;5082190;28;20020;-74
2022/01/06 01:53:28;;;;;;;5.70;1.95;;;2.50;99.90;;;;;;5068019;28;20043;-74
2022/01/06 01:55:54;;;;;;;7.07;1.60;;;2.50;99.90;;;;;;5095676;28;20043;-73
2022/01/06 01:58:20;;;;;;;5.50;1.55;;;2.50;99.90;;;;;;5082660;28;20032;-73
2022/01/06 02:00:46;;;;;;;10.00;1.85;;;2.40;99.90;;;;;;5063216;28;20173;-73
2022/01/06 02:03:12;;;;;;;5.75;1.10;;;2.40;99.90;;;;;;5063123;28;20055;-73
2022/01/06 02:05:38;;;;;;;4.90;1.33;;;2.40;99.90;;;;;;5080661;28;20025;-73
2022/01/06 02:08:05;;;;;;;9.40;1.70;;;2.40;99.90;;;;;;5061947;28;20021;-73
2022/01/06 02:10:32;;;;;;;5.85;1.40;;;2.30;99.90;;;;;;5080369;28;20020;-73
2022/01/06 02:13:00;;;;;;;7.68;1.60;;;2.40;99.90;;;;;;5080995;28;20385;-73
2022/01/06 02:15:26;;;;;;;5.13;1.90;;;2.30;99.90;;;;;;5080275;28;20106;-73
2022/01/06 02:17:52;;;;;;;3.90;1.20;;;2.20;99.90;;;;;;5062664;28;20028;-74
2022/01/06 02:20:19;;;;;;;12.43;1.75;;;2.20;99.90;;;;;;5062126;28;20050;-75
2022/01/06 02:22:45;;;;;;;5.93;1.70;;;2.20;99.90;;;;;;5061438;28;20031;-73
2022/01/06 02:25:13;;;;;;;4.93;1.50;;;2.20;99.90;;;;;;5080573;28;20089;-74
2022/01/06 02:27:39;;;;;;;6.03;1.75;;;2.20;99.90;;;;;;5080654;28;20039;-73
2022/01/06 02:30:05;;;;;;;5.90;1.55;;;2.20;99.90;;;;;;5064629;28;20391;-73
2022/01/06 02:32:31;;;;;;;6.72;1.40;;;2.10;99.90;;;;;;5080821;28;20025;-73
2022/01/06 02:34:56;;;;;;;6.97;2.00;;;2.20;99.90;;;;;;5081594;28;20059;-73
2022/01/06 02:37:22;;;;;;;18.58;2.60;;;2.20;99.90;;;;;;5080971;28;20059;-73
2022/01/06 02:39:48;;;;;;;6.43;1.55;;;2.20;99.90;;;;;;5063235;28;20029;-72
2022/01/06 02:42:13;;;;;;;5.75;1.25;;;2.10;99.90;;;;;;5079553;28;20114;-73
2022/01/06 02:44:39;;;;;;;7.88;1.90;;;2.10;99.90;;;;;;5079119;28;20535;-73
2022/01/06 02:47:06;;;;;;;7.50;1.55;;;2.10;99.90;;;;;;5078340;28;20025;-73
2022/01/06 02:49:32;;;;;;;4.85;1.38;;;2.10;99.90;;;;;;5078674;28;20073;-73
2022/01/06 02:51:58;;;;;;;9.73;1.85;;;2.10;99.90;;;;;;5075238;28;20108;-73
2022/01/06 02:54:24;;;;;;;11.27;2.03;;;2.10;99.90;;;;;;5076118;28;20393;-73
2022/01/06 02:56:49;;;;;;;8.07;1.65;;;2.10;99.90;;;;;;5077657;28;20033;-73
2022/01/06 02:59:15;;;;;;;7.28;1.98;;;2.00;99.90;;;;;;5058838;28;20069;-73
2022/01/06 03:01:43;;;;;;;7.72;1.80;;;2.00;99.90;;;;;;5077358;28;20037;-72
2022/01/06 03:04:09;;;;;;;4.47;1.77;;;2.00;99.90;;;;;;5076453;28;20081;-73
2022/01/06 03:06:35;;;;;;;4.15;1.70;;;2.00;99.90;;;;;;5076365;28;20411;-73
2022/01/06 03:09:02;;;;;;;8.75;1.80;;;2.00;99.90;;;;;;5077867;28;20027;-73
2022/01/06 03:11:28;;;;;;;6.75;2.40;;;1.90;99.90;;;;;;5060883;28;20218;-73
2022/01/06 03:13:54;;;;;;;6.25;1.92;;;1.90;99.90;;;;;;5077726;28;20024;-73
2022/01/06 03:16:20;;;;;;;8.70;2.05;;;1.90;99.90;;;;;;5078479;28;20117;-73
2022/01/06 03:18:46;;;;;;;5.75;2.10;;;1.90;99.90;;;;;;5077399;28;20039;-73
2022/01/06 03:21:12;;;;;;;6.88;1.75;;;2.00;99.90;;;;;;5063365;28;20047;-73
2022/01/06 03:23:38;;;;;;;9.73;1.85;;;2.00;99.90;;;;;;5082904;28;20036;-72
2022/01/06 03:26:03;;;;;;;11.70;1.92;;;2.00;99.90;;;;;;5082779;28;20092;-72
2022/01/06 03:28:29;;;;;;;13.80;2.72;;;2.00;99.90;;;;;;5082686;28;20508;-72
2022/01/06 03:30:55;;;;;;;6.35;1.98;;;2.00;99.90;;;;;;5083334;28;20047;-72
2022/01/06 03:33:20;;;;;;;14.80;3.03;;;1.90;99.90;;;;;;5083427;28;20103;-72
2022/01/06 03:35:46;;;;;;;14.45;2.72;;;1.90;99.90;;;;;;5063877;28;20111;-73
2022/01/06 03:38:11;;;;;;;10.00;2.00;;;1.90;99.90;;;;;;5082383;28;20036;-73
2022/01/06 03:40:39;;;;;;;4.97;1.98;;;1.90;99.90;;;;;;5083130;28;20055;-73
2022/01/06 03:43:05;;;;;;;10.93;2.85;;;1.90;99.90;;;;;;5065229;28;20045;-73
2022/01/06 03:45:32;;;;;;;6.75;2.00;;;1.90;99.90;;;;;;5065753;28;20025;-73
2022/01/06 03:47:58;;;;;;;10.25;2.13;;;1.90;99.90;;;;;;5089593;28;20016;-73
2022/01/06 03:50:24;;;;;;;9.90;2.22;;;1.90;99.90;;;;;;5074670;28;20112;-73
2022/01/06 03:52:50;;;;;;;12.88;2.70;;;1.90;99.90;;;;;;5083731;28;20032;-73
2022/01/06 03:55:18;;;;;;;4.57;2.25;;;1.80;99.90;;;;;;5085144;28;20036;-72
2022/01/06 03:57:44;;;;;;;18.38;2.55;;;1.90;99.90;;;;;;5068115;28;20025;-73
2022/01/06 04:00:13;;;;;;;8.98;2.17;;;1.90;99.90;;;;;;5083419;28;20024;-73
2022/01/06 04:02:39;;;;;;;14.05;1.98;;;1.90;99.90;;;;;;5083646;28;20021;-73
2022/01/06 04:05:06;;;;;;;8.65;1.98;;;1.90;99.90;;;;;;5083547;28;20079;-73
2022/01/06 04:07:32;;;;;;;10.55;2.50;;;1.90;99.90;;;;;;5081982;28;20036;-73
2022/01/06 04:09:58;;;;;;;9.32;2.30;;;1.90;99.90;;;;;;5082201;28;20016;-73
2022/01/06 04:12:24;;;;;;;7.93;2.03;;;1.90;99.90;;;;;;5065232;28;20055;-73
2022/01/06 04:14:50;;;;;;;12.85;2.92;;;1.90;99.90;;;;;;5083453;28;20031;-73
2022/01/06 04:17:15;;;;;;;6.43;1.90;;;2.00;99.90;;;;;;5082245;28;20021;-73
2022/01/06 04:19:41;;;;;;;13.65;2.17;;;2.00;99.90;;;;;;5062553;28;20040;-72
2022/01/06 04:22:07;;;;;;;10.80;2.00;;;2.00;99.90;;;;;;5078715;28;20028;-73
2022/01/06 04:24:32;;;;;;;6.88;1.75;;;2.00;99.90;;;;;;5078857;28;20024;-73
2022/01/06 04:26:58;;;;;;;9.70;2.38;;;2.00;99.90;;;;;;5079083;28;20020;-72
2022/01/06 04:29:24;;;;;;;15.50;2.10;;;2.00;99.90;;;;;;5079422;28;20024;-73
2022/01/06 04:31:49;;;;;;;6.82;1.63;;;2.00;99.90;;;;;;5062220;28;20046;-72
2022/01/06 04:34:15;;;;;;;10.55;2.00;;;2.00;99.90;;;;;;5080062;28;20085;-73
2022/01/06 04:36:47;;;;;;;6.20;1.73;;;2.00;99.90;;;;;;5078892;28;20082;-72
2022/01/06 04:39:13;;;;;;;8.20;1.75;;;2.10;99.90;;;;;;5079264;28;20432;-73
2022/01/06 04:41:38;;;;;;;8.90;1.80;;;2.10;99.90;;;;;;5079526;28;20033;-73
2022/01/06 04:44:04;;;;;;;13.38;2.03;;;2.10;99.90;;;;;;5080980;28;20032;-72
2022/01/06 04:46:29;;;;;;;9.80;2.15;;;2.20;99.90;;;;;;5080362;28;20025;-73
2022/01/06 04:48:55;;;;;;;7.57;1.80;;;2.20;99.90;;;;;;5082825;28;20093;-72
2022/01/06 04:51:20;;;;;;;7.68;1.42;;;2.20;99.90;;;;;;5083333;28;20085;-72
2022/01/06 04:53:46;;;;;;;7.90;1.88;;;2.20;99.90;;;;;;5083405;28;20059;-72
2022/01/06 04:56:11;;;;;;;6.72;1.92;;;2.20;99.90;;;;;;5065526;28;20029;-72
2022/01/06 04:58:37;;;;;;;5.65;1.70;;;2.10;99.90;;;;;;5081415;28;20402;-72
2022/01/06 05:01:03;;;;;;;12.55;1.52;;;2.10;99.90;;;;;;5062530;28;20116;-72
2022/01/06 05:03:29;;;;;;;11.18;2.13;;;2.10;99.90;;;;;;5063982;28;20533;-73
2022/01/06 05:05:55;;;;;;;5.72;1.63;;;2.10;99.90;;;;;;5081970;28;20072;-73
2022/01/06 05:08:20;;;;;;;13.60;1.83;;;2.10;99.90;;;;;;5082779;28;20052;-72
2022/01/06 05:10:46;;;;;;;10.90;2.83;;;2.10;99.90;;;;;;5063499;28;20024;-73
2022/01/06 05:13:12;;;;;;;8.23;2.15;;;2.10;99.90;;;;;;5080781;28;20036;-73
2022/01/06 05:15:37;;;;;;;6.85;1.58;;;2.10;99.90;;;;;;5058043;28;20115;-71
2022/01/06 05:18:03;;;;;;;10.93;1.83;;;2.10;99.90;;;;;;5045941;28;20029;-71
2022/01/06 05:20:30;;;;;;;8.32;2.03;;;2.10;99.90;;;;;;5064619;28;20070;-71
2022/01/06 05:22:57;;;;;;;9.45;1.90;;;2.00;99.90;;;;;;5064514;28;20075;-71
2022/01/06 05:25:28;;;;;;;13.02;2.35;;;2.00;99.90;;;;;;5064538;28;20466;-71
2022/01/06 05:27:54;;;;;;;;;;;2.00;99.90;;;;;;5065305;28;20385;-71
2022/01/06 05:30:20;;;;;;;8.07;1.85;;;1.90;99.90;;;;;;5063032;28;19912;-71
2022/01/06 05:32:45;;;;;;;7.80;1.58;;;1.90;99.90;;;;;;5064376;28;20028;-70
2022/01/06 05:35:11;;;;;;;9.02;1.95;;;1.90;99.90;;;;;;5063908;28;20478;-71
2022/01/06 05:37:37;;;;;;;4.93;1.52;;;2.00;99.90;;;;;;5064202;28;20078;-71
2022/01/06 05:40:03;;;;;;;5.38;2.17;;;2.00;99.90;;;;;;5062818;28;20033;-70
2022/01/06 05:42:29;;;;;;;8.55;1.90;;;2.00;99.90;;;;;;5090948;23;20113;-68
2022/01/06 05:44:54;;;;;;;7.50;1.80;;;2.00;99.90;;;;;;5090560;28;20020;-70
2022/01/06 05:47:20;;;;;;;6.10;1.70;;;2.00;99.90;;;;;;5087516;28;20464;-70
2022/01/06 05:49:45;;;;;;;10.05;2.20;;;2.00;99.90;;;;;;5086746;28;20381;-70
2022/01/06 05:52:11;;;;;;;5.28;1.80;;;2.00;99.90;;;;;;5058164;28;20390;-69
2022/01/06 05:54:37;;;;;;;7.05;1.88;;;1.90;99.90;;;;;;5058566;28;20073;-69
2022/01/06 05:57:03;;;;;;;4.88;1.63;;;2.00;99.90;;;;;;5076479;28;20066;-69
2022/01/06 05:59:31;;;;;;;12.20;2.47;;;2.00;99.90;;;;;;5076767;28;20118;-69
2022/01/06 06:01:57;;;;;;;6.22;2.08;;;2.00;99.90;;;;;;5076117;28;20036;-71
2022/01/06 06:04:23;;;;;;;12.23;2.13;;;2.00;99.90;;;;;;5075938;28;20028;-69
2022/01/06 06:06:48;;;;;;;7.10;1.50;;;1.90;99.90;;;;;;5076371;28;20035;-69
2022/01/06 06:09:14;;;;;;;8.05;1.95;;;2.00;99.90;;;;;;5077128;28;20025;-69
2022/01/06 06:11:40;;;;;;;5.57;1.77;;;2.00;99.90;;;;;;5064652;28;20032;-69
2022/01/06 06:14:05;;;;;;;9.90;1.73;;;2.00;99.90;;;;;;5057089;28;20045;-68
2022/01/06 06:16:31;;;;;;;8.27;1.40;;;2.00;99.90;;;;;;5057523;28;20037;-69
2022/01/06 06:18:56;;;;;;;10.02;1.80;;;2.10;99.90;;;;;;5056201;28;20108;-69
2022/01/06 06:21:22;;;;;;;11.63;1.63;;;2.20;99.90;;;;;;5055030;28;20035;-69
2022/01/06 06:23:47;;;;;;;7.85;2.22;;;2.10;99.90;;;;;;5055349;28;20068;-69
2022/01/06 06:26:13;;;;;;;9.80;2.60;;;2.10;99.90;;;;;;5055269;28;20021;-68
2022/01/06 06:28:39;;;;;;;8.70;2.38;;;2.10;99.90;;;;;;5054008;28;20497;-68
2022/01/06 06:31:04;;;;;;;6.00;1.45;;;2.00;99.90;;;;;;5053909;28;20405;-68
2022/01/06 06:33:30;;;;;;;12.32;2.05;;;2.00;99.90;;;;;;5056978;28;20014;-69
2022/01/06 06:35:56;;;;;;;13.05;2.17;;;2.00;99.90;;;;;;5065349;28;20024;-68
2022/01/06 06:38:21;;;;;;;7.30;1.95;;;2.00;99.90;;;;;;5050689;28;20080;-68
2022/01/06 06:40:47;;;;;;;9.52;2.20;;;1.90;99.90;;;;;;5070100;28;20025;-69
2022/01/06 06:43:14;;;;;;;9.70;2.22;;;1.90;99.90;;;;;;5063769;28;20493;-69
2022/01/06 06:45:41;;;;;;;7.72;2.10;;;1.90;99.90;;;;;;5062066;28;20074;-69
2022/01/06 06:48:07;;;;;;;5.20;2.42;;;1.90;99.90;;;;;;5064360;28;20025;-68
2022/01/06 06:50:33;;;;;;;5.57;1.75;;;1.90;99.90;;;;;;5061674;28;20027;-69
2022/01/06 06:52:59;;;;;;;11.40;2.55;;;1.90;99.90;;;;;;5065627;28;20396;-69
2022/01/06 06:55:25;;;;;;;8.85;1.90;;;1.80;99.90;;;;;;5065557;28;20021;-69
2022/01/06 06:57:51;;;;;;;7.28;2.08;;;1.90;99.90;;;;;;5063137;28;20461;-69
2022/01/06 07:00:17;;;;;;;11.05;2.28;;;1.90;99.90;;;;;;5064807;28;20028;-69
2022/01/06 07:02:42;;;;;;;15.90;1.67;;;1.80;99.90;;;;;;5062451;28;20027;-68
2022/01/06 07:05:08;;;;;;;13.40;2.38;;;1.80;99.90;;;;;;5057465;28;20486;-69
2022/01/06 07:07:34;;;;;;;8.02;2.25;;;1.80;99.90;;;;;;5069190;28;20104;-68
2022/01/06 07:10:01;;;;;;;13.60;3.20;;;1.80;99.90;;;;;;5058601;28;20025;-69
2022/01/06 07:12:27;;;;;;;9.40;2.25;;;1.90;99.90;;;;;;5038347;28;20028;-69
2022/01/06 07:14:52;;;;;;;7.80;1.63;;;1.80;99.90;;;;;;5063251;28;20040;-69
2022/01/06 07:17:18;;;;;;;5.05;2.28;;;1.80;99.90;;;;;;5066640;28;20032;-69
2022/01/06 07:19:43;;;;;;;10.10;1.70;;;1.80;99.90;;;;;;5063665;28;20021;-69
2022/01/06 07:22:09;;;;;;;11.68;2.30;;;1.80;99.90;;;;;;5060947;28;20434;-69
2022/01/06 07:24:36;;;;;;;7.68;2.20;;;1.70;99.90;;;;;;5064776;28;20025;-68
2022/01/06 07:27:03;;;;;;;8.65;1.80;;;1.80;99.90;;;;;;5064774;28;20028;-69
2022/01/06 07:29:29;;;;;;;14.95;3.35;;;1.70;99.90;;;;;;5062700;28;20020;-69
2022/01/06 07:31:55;;;;;;;14.50;2.17;;;1.70;99.90;;;;;;5046014;28;20028;-69
2022/01/06 07:34:20;;;;;;;14.07;3.28;;;1.70;99.90;;;;;;5067734;28;20544;-69
2022/01/06 07:36:46;;;;;;;15.73;2.85;;;1.80;99.90;;;;;;5060018;28;20021;-69
2022/01/06 07:39:12;;;;;;;10.00;3.45;;;1.70;99.90;;;;;;5065653;28;20027;-69
2022/01/06 07:41:37;;;;;;;9.55;2.88;;;1.70;99.90;;;;;;5041425;28;20028;-68
2022/01/06 07:44:07;;;;;;;13.95;2.97;;;1.70;99.90;;;;;;5043224;28;20033;-68
2022/01/06 07:46:35;;;;;;;15.90;3.50;;;1.80;99.90;;;;;;5044486;28;20016;-69
2022/01/06 07:49:01;;;;;;;17.10;3.10;;;1.70;99.90;;;;;;5063934;28;20464;-68
2022/01/06 07:51:30;;;;;;;19.02;3.10;;;1.70;99.90;;;;;;5073903;28;20107;-68
2022/01/06 07:53:56;;;;;;;13.27;2.60;;;1.70;99.90;;;;;;5073988;28;20162;-68
2022/01/06 07:56:22;;;;;;;22.75;3.28;;;1.80;99.90;;;;;;5073946;28;20035;-68
2022/01/06 07:58:48;;;;;;;9.40;2.85;;;1.80;99.90;;;;;;5073167;28;20468;-68
2022/01/06 08:01:14;;;;;;;6.65;2.55;;;1.80;99.90;;;;;;5054901;28;20342;-69
2022/01/06 08:03:41;;;;;;;13.57;3.28;;;1.80;99.90;;;;;;5073550;28;20462;-69
2022/01/06 08:06:06;;;;;;;11.35;3.30;;;1.80;99.90;;;;;;5075949;28;20070;-69
2022/01/06 08:08:32;;;;;;;11.93;2.83;;;1.80;99.90;;;;;;5077241;28;20025;-68
2022/01/06 08:10:58;;;;;;;14.65;3.92;;;1.80;99.90;;;;;;5077563;28;20051;-68
2022/01/06 08:13:23;;;;;;;9.40;2.65;;;1.80;99.90;;;;;;5078582;28;20033;-69
2022/01/06 08:15:49;;;;;;;11.00;2.70;;;1.80;99.90;;;;;;5076859;28;20033;-69
2022/01/06 08:18:14;;;;;;;16.35;2.92;;;1.90;99.90;;;;;;5077437;28;20030;-69
2022/01/06 08:20:40;;;;;;;8.25;2.45;;;1.90;99.90;;;;;;5077376;28;20066;-69
2022/01/06 08:23:06;;;;;;;15.23;3.03;;;1.90;99.90;;;;;;5077495;28;20393;-69
2022/01/06 08:25:32;;;;;;;15.23;3.75;;;1.90;99.90;;;;;;5077351;28;20073;-69
2022/01/06 08:27:57;;;;;;;12.75;2.95;;;1.90;99.90;;;;;;5076855;28;20100;-68
2022/01/06 08:30:23;;;;;;;13.73;2.95;;;2.00;99.90;;;;;;5077146;28;20523;-68
2022/01/06 08:32:49;;;;;;;12.02;2.88;;;2.60;99.90;;;;;;5077079;28;20024;-68
2022/01/06 08:35:14;;;;;;;14.85;2.53;;;2.50;99.90;;;;;;5076626;28;20033;-68
2022/01/06 08:37:40;;;;;;;15.05;2.92;;;2.50;99.90;;;;;;5076812;28;20451;-69
2022/01/06 08:40:07;;;;;;;18.58;3.75;;;2.40;99.90;;;;;;5059741;28;20397;-69
2022/01/06 08:42:32;;;;;;;13.00;3.60;;;2.40;99.90;;;;;;5077202;28;20409;-69
2022/01/06 08:44:58;;;;;;;15.35;2.63;;;2.40;99.90;;;;;;5077344;28;20028;-69
2022/01/06 08:47:24;;;;;;;15.20;2.92;;;2.40;99.90;;;;;;5076148;28;20024;-69
2022/01/06 08:49:49;;;;;;;18.20;3.25;;;2.40;99.90;;;;;;5076396;28;20440;-69
2022/01/06 08:52:15;;;;;;;13.73;3.53;;;2.40;99.90;;;;;;5076343;28;20101;-70
2022/01/06 08:54:40;;;;;;;19.90;3.08;;;2.40;99.90;;;;;;5076253;28;20025;-69
2022/01/06 08:57:06;;;;;;;11.60;2.67;;;2.40;99.90;;;;;;5076290;28;20036;-69
2022/01/06 08:59:32;;;;;;;11.20;3.30;;;2.50;99.90;;;;;;5076530;28;20028;-69
2022/01/06 09:01:58;;;;;;;15.40;3.17;;;2.50;99.90;;;;;;5076421;28;20105;-69
2022/01/06 09:04:23;;;;;;;16.90;4.25;;;2.50;99.90;;;;;;5078194;28;20040;-68
2022/01/06 09:06:51;;;;;;;10.40;3.13;;;2.50;99.90;;;;;;5076017;28;20360;-69
2022/01/06 09:09:17;;;;;;;19.88;3.20;;;2.60;99.90;;;;;;5059170;28;20016;-69
2022/01/06 09:11:43;;;;;;;15.05;3.70;;;2.60;99.90;;;;;;5076104;28;20029;-69
2022/01/06 09:14:09;;;;;;;9.38;2.08;;;2.60;99.90;;;;;;5076312;28;20032;-68
2022/01/06 09:16:37;;;;;;;13.45;3.92;;;2.70;99.90;;;;;;5076577;28;20060;-68
2022/01/06 09:19:02;;;;;;;10.60;3.05;;;2.70;99.90;;;;;;5076998;28;20032;-68
2022/01/06 09:21:28;;;;;;;19.13;3.67;;;2.70;99.90;;;;;;5076842;28;20028;-69
2022/01/06 09:23:54;;;;;;;16.35;2.90;;;2.70;99.90;;;;;;5077422;28;20021;-68
2022/01/06 09:26:20;;;;;;;14.43;3.25;;;2.80;99.90;;;;;;5078413;28;20036;-69
2022/01/06 09:28:46;;;;;;;19.17;3.60;;;2.80;99.90;;;;;;5079097;28;20028;-68
2022/01/06 09:31:11;;;;;;;8.77;3.05;;;2.80;99.90;;;;;;5080793;28;20031;-69
2022/01/06 09:33:37;;;;;;;16.23;3.67;;;2.80;99.90;;;;;;5078135;28;20448;-68
2022/01/06 09:36:03;;;;;;;11.02;2.58;;;2.90;99.90;;;;;;5078831;28;20103;-68
2022/01/06 09:38:30;;;;;;;10.50;2.53;;;3.00;99.90;;;;;;5081422;28;20476;-68
2022/01/06 09:40:55;;;;;;;16.70;4.30;;;3.00;99.90;;;;;;5080487;28;20031;-68
2022/01/06 09:43:25;;;;;;;13.77;4.25;;;3.10;99.90;;;;;;5079794;28;20385;-68
2022/01/06 09:45:52;;;;;;;22.50;4.30;;;3.10;99.90;;;;;;5076708;28;20059;-69
2022/01/06 09:48:20;;;;;;;17.98;3.60;;;3.10;99.90;;;;;;5057154;28;20713;-68
2022/01/06 09:50:46;;;;;;;22.10;3.22;;;3.20;99.90;;;;;;5074693;28;20465;-69
2022/01/06 09:53:12;;;;;;;24.85;3.65;;;3.20;99.90;;;;;;5056787;28;20043;-69
2022/01/06 09:55:39;;;;;;;17.30;3.60;;;3.30;99.90;;;;;;5075412;28;20032;-68
2022/01/06 09:58:05;;;;;;;15.02;4.05;;;3.30;99.90;;;;;;5075350;28;20035;-68
2022/01/06 10:00:32;;;;;;;14.55;3.85;;;3.40;99.90;;;;;;5074851;28;20025;-68
2022/01/06 10:03:01;;;;;;;16.00;3.75;;;3.40;99.90;;;;;;5074815;28;20081;-68
2022/01/06 10:05:37;;;;;;;14.52;2.95;;;3.50;99.90;;;;;;5075304;28;20099;-68
2022/01/06 10:08:05;;;;;;;12.15;3.30;;;3.60;99.90;;;;;;5074807;28;20061;-68
2022/01/06 10:10:31;;;;;;;20.58;3.95;;;3.60;99.90;;;;;;5075134;28;20047;-68
2022/01/06 10:13:00;;;;;;;10.82;3.13;;;3.70;99.90;;;;;;5074923;28;20032;-69
2022/01/06 10:15:28;;;;;;;12.77;2.95;;;3.70;99.90;;;;;;5075859;28;20132;-68
2022/01/06 10:17:55;;;;;;;20.50;3.47;;;3.80;99.90;;;;;;5074889;28;20397;-68
2022/01/06 10:20:26;;;;;;;18.27;3.55;;;3.80;99.90;;;;;;5075096;28;20020;-67
2022/01/06 10:22:54;;;;;;;12.75;2.53;;;3.80;99.90;;;;;;5075821;28;20028;-68
2022/01/06 10:25:22;;;;;;;19.90;3.67;;;3.80;99.90;;;;;;5076974;28;20025;-68
2022/01/06 10:27:49;;;;;;;25.40;3.72;;;3.90;99.90;;;;;;5079378;28;20036;-68
2022/01/06 10:30:15;;;;;;;15.98;3.05;;;3.90;99.90;;;;;;5080580;28;20377;-69
2022/01/06 10:32:42;;;;;;;23.38;4.20;;;3.90;99.90;;;;;;5079505;28;20039;-69
2022/01/06 10:35:09;;;;;;;15.75;2.70;;;4.00;99.90;;;;;;5080147;28;20024;-68
2022/01/06 10:37:40;;;;;;;18.27;3.70;;;4.00;99.90;;;;;;5080279;28;20350;-69
2022/01/06 10:40:11;;;;;;;19.60;3.40;;;4.00;99.90;;;;;;5079363;28;20024;-69
2022/01/06 10:42:39;;;;;;;17.67;3.30;;;4.00;99.90;;;;;;5081639;28;20052;-70
2022/01/06 10:45:11;;;;;;;14.57;2.80;;;4.10;99.90;;;;;;5084409;28;20119;-70
2022/01/06 10:47:38;;;;;;;16.58;3.70;;;4.10;99.90;;;;;;5062116;28;20028;-70
2022/01/06 10:50:42;;;;;;;16.08;3.75;;;4.10;99.90;;;;;;5082735;28;20025;-70
2022/01/06 10:53:12;;;;;;;12.70;3.50;;;4.20;99.90;;;;;;5064461;28;20036;-69
2022/01/06 10:55:43;;;;;;;18.67;3.40;;;4.20;99.90;;;;;;5081198;28;20030;-70
2022/01/06 10:58:10;;;;;;;;;;;4.20;99.90;;;;;;5080795;28;20032;-70
2022/01/06 11:00:52;;;;;;;17.85;3.10;;;4.20;99.90;;;;;;5081050;28;19905;-70
2022/01/06 11:03:23;;;;;;;20.88;3.20;;;4.20;99.90;;;;;;5078182;28;20028;-70
2022/01/06 11:05:52;;;;;;;19.05;3.33;;;4.30;99.90;;;;;;5077293;28;20017;-70
2022/01/06 11:08:25;;;;;;;15.65;3.88;;;4.30;99.90;;;;;;5076936;28;20040;-70
2022/01/06 11:13:44;;;;;;;16.30;3.22;;;4.40;99.90;;;;;;5075552;28;20025;-71
2022/01/06 11:16:12;;;;;;;21.63;3.47;;;4.50;99.90;;;;;;5075785;28;20017;-70
2022/01/06 11:18:41;;;;;;;12.15;2.72;;;4.50;99.90;;;;;;5075218;28;20060;-71
2022/01/06 11:21:13;;;;;;;15.30;3.47;;;4.50;99.90;;;;;;5074951;28;20385;-70
2022/01/06 11:23:39;;;;;;;20.10;3.35;;;4.50;99.90;;;;;;5075531;28;20040;-70
2022/01/06 11:26:31;;;;;;;21.17;3.08;;;4.60;99.90;;;;;;5075358;28;20385;-70
2022/01/06 11:28:59;;;;;;;19.90;4.75;;;4.60;99.90;;;;;;5072705;28;20036;-70
2022/01/06 11:31:27;;;;;;;14.00;2.75;;;4.60;99.90;;;;;;5075229;28;20025;-70
2022/01/06 11:33:54;;;;;;;14.10;3.78;;;4.60;99.90;;;;;;5075163;28;20032;-71
2022/01/06 11:36:32;;;;;;;23.60;3.15;;;4.70;99.90;;;;;;5057865;28;20027;-70
2022/01/06 11:38:59;;;;;;;16.63;3.13;;;4.80;99.90;;;;;;5070224;28;20032;-70
2022/01/06 11:41:38;;;;;;;13.35;3.40;;;4.80;99.90;;;;;;5053125;28;20385;-70
2022/01/06 11:44:29;;;;;;;27.05;5.35;;;4.80;99.90;;;;;;5063280;28;20441;-71
2022/01/06 11:46:57;;;;;;;14.98;3.58;;;4.80;99.90;;;;;;5061835;28;20474;-70
2022/01/06 11:49:35;;;;;;;16.90;3.70;;;4.80;99.90;;;;;;5044224;28;20029;-70
2022/01/06 11:52:07;;;;;;;15.00;3.65;;;4.90;99.90;;;;;;5062066;28;20021;-70
2022/01/06 11:54:49;;;;;;;18.70;3.92;;;4.90;99.90;;;;;;5062046;28;20096;-70
2022/01/06 11:57:33;;;;;;;14.35;2.97;;;4.90;99.90;;;;;;5046449;28;20021;-71
2022/01/06 12:00:26;;;;;;;16.20;4.45;;;5.10;99.90;;;;;;5040893;28;20025;-70
2022/01/06 12:03:03;;;;;;;19.58;4.18;;;5.00;99.90;;;;;;5061388;28;20048;-70
2022/01/06 12:05:52;;;;;;;16.20;4.22;;;5.10;99.90;;;;;;5070095;28;20093;-71
2022/01/06 12:08:19;;;;;;;11.10;2.83;;;5.10;99.90;;;;;;5073566;28;20024;-70
2022/01/06 12:10:47;;;;;;;19.67;2.95;;;5.10;99.90;;;;;;5061701;28;20115;-70
2022/01/06 12:13:14;;;;;;;18.00;3.72;;;5.10;99.90;;;;;;5078599;28;20170;-70
2022/01/06 12:15:55;;;;;;;18.27;3.53;;;5.20;99.90;;;;;;5061037;28;20031;-71
2022/01/06 12:18:26;;;;;;;19.20;3.80;;;5.20;99.90;;;;;;5078678;28;20021;-70
2022/01/06 12:20:54;;;;;;;22.08;4.03;;;5.30;99.90;;;;;;5079191;28;20092;-70
2022/01/06 12:23:20;;;;;;;16.45;3.28;;;5.30;99.90;;;;;;5077964;28;20017;-70
2022/01/06 12:26:00;;;;;;;18.45;3.72;;;5.40;99.90;;;;;;5078993;28;20024;-70
2022/01/06 12:28:28;;;;;;;19.10;3.30;;;5.40;99.90;;;;;;5079258;28;20021;-70
2022/01/06 12:30:58;;;;;;;15.77;3.17;;;5.40;99.90;;;;;;5078746;28;20029;-71
2022/01/06 12:33:24;;;;;;;31.75;3.65;;;5.30;99.90;;;;;;5079181;28;20032;-76
2022/01/06 12:35:54;;;;;;;12.32;3.50;;;5.30;99.90;;;;;;5077883;28;20327;-71
2022/01/06 12:38:31;;;;;;;12.02;2.92;;;5.40;99.90;;;;;;5060195;28;20052;-71
2022/01/06 12:40:58;;;;;;;11.70;2.85;;;5.40;99.90;;;;;;5078416;28;20106;-71
2022/01/06 12:43:26;;;;;;;14.65;3.22;;;5.40;99.90;;;;;;5077559;28;20035;-70
2022/01/06 12:46:13;;;;;;;18.40;3.83;;;5.40;99.90;;;;;;5059889;28;20029;-71
2022/01/06 12:48:41;;;;;;;20.10;3.90;;;5.50;99.90;;;;;;5078361;28;20017;-70
2022/01/06 12:51:10;;;;;;;12.05;3.65;;;5.50;99.90;;;;;;5076710;28;20023;-71
2022/01/06 12:53:41;;;;;;;13.32;3.60;;;5.50;99.90;;;;;;5077302;28;20362;-71
2022/01/06 12:56:08;;;;;;;22.40;4.10;;;5.50;99.90;;;;;;5058413;28;20193;-72
2022/01/06 12:58:36;;;;;;;21.70;4.53;;;5.60;99.90;;;;;;5058116;28;20025;-72
2022/01/06 13:01:05;;;;;;;16.83;3.35;;;5.60;99.90;;;;;;5076748;28;20028;-71
2022/01/06 13:03:34;;;;;;;25.05;3.33;;;5.60;99.90;;;;;;5058805;28;20048;-72
2022/01/06 13:06:02;;;;;;;16.88;3.15;;;5.60;99.90;;;;;;5077011;28;20453;-72
2022/01/06 13:08:29;;;;;;;25.17;3.88;;;5.60;99.90;;;;;;5077289;28;20551;-72